sensor_id;sensor_type;location;lat;lon;timestamp;P1;durP1;ratioP1;P2;durP2;ratioP2
38629;SDS011;24384;51.988;4.644;2023-05-14T00:00:11;19.60;;;16.48;;
38629;SDS011;24384;51.988;4.644;2023-05-14T00:02:37;26.60;;;17.05;;
38629;SDS011;24384;51.988;4.644;2023-05-14T00:05:02;19.83;;;16.45;;
38629;SDS011;24384;51.988;4.644;2023-05-14T00:07:28;23.95;;;17.98;;
38629;SDS011;24384;51.988;4.644;2023-05-14T00:09:55;25.67;;;19.77;;
38629;SDS011;24384;51.988;4.644;2023-05-14T00:12:21;18.75;;;15.98;;
38629;SDS011;24384;51.988;4.644;2023-05-14T00:14:46;26.13;;;16.30;;
38629;SDS011;24384;51.988;4.644;2023-05-14T00:17:12;25.25;;;15.77;;
38629;SDS011;24384;51.988;4.644;2023-05-14T00:19:38;24.05;;;14.82;;
38629;SDS011;24384;51.988;4.644;2023-05-14T00:22:06;24.25;;;14.15;;
38629;SDS011;24384;51.988;4.644;2023-05-14T00:24:32;17.55;;;14.48;;
38629;SDS011;24384;51.988;4.644;2023-05-14T00:26:57;20.40;;;16.02;;
38629;SDS011;24384;51.988;4.644;2023-05-14T00:29:23;17.17;;;13.50;;
38629;SDS011;24384;51.988;4.644;2023-05-14T00:31:48;22.92;;;14.63;;
38629;SDS011;24384;51.988;4.644;2023-05-14T00:34:13;19.00;;;13.75;;
38629;SDS011;24384;51.988;4.644;2023-05-14T00:36:38;19.88;;;14.07;;
38629;SDS011;24384;51.988;4.644;2023-05-14T00:39:05;20.80;;;14.38;;
38629;SDS011;24384;51.988;4.644;2023-05-14T00:41:31;20.02;;;13.32;;
38629;SDS011;24384;51.988;4.644;2023-05-14T00:43:56;20.75;;;14.05;;
38629;SDS011;24384;51.988;4.644;2023-05-14T00:46:21;18.75;;;14.15;;
38629;SDS011;24384;51.988;4.644;2023-05-14T00:48:46;22.30;;;16.65;;
38629;SDS011;24384;51.988;4.644;2023-05-14T00:51:13;19.83;;;15.13;;
38629;SDS011;24384;51.988;4.644;2023-05-14T00:53:40;21.83;;;16.73;;
38629;SDS011;24384;51.988;4.644;2023-05-14T00:56:05;22.20;;;16.13;;
38629;SDS011;24384;51.988;4.644;2023-05-14T00:58:32;21.70;;;16.70;;
38629;SDS011;24384;51.988;4.644;2023-05-14T01:00:57;21.40;;;16.27;;
38629;SDS011;24384;51.988;4.644;2023-05-14T01:03:22;25.23;;;16.35;;
38629;SDS011;24384;51.988;4.644;2023-05-14T01:05:59;21.10;;;15.90;;
38629;SDS011;24384;51.988;4.644;2023-05-14T01:11:19;27.50;;;18.25;;
38629;SDS011;24384;51.988;4.644;2023-05-14T01:16:32;21.45;;;16.92;;
38629;SDS011;24384;51.988;4.644;2023-05-14T01:18:58;26.33;;;17.42;;
38629;SDS011;24384;51.988;4.644;2023-05-14T01:21:35;24.98;;;17.92;;
38629;SDS011;24384;51.988;4.644;2023-05-14T01:24:04;23.10;;;17.55;;
38629;SDS011;24384;51.988;4.644;2023-05-14T01:26:29;24.30;;;17.10;;
38629;SDS011;24384;51.988;4.644;2023-05-14T01:29:15;28.63;;;16.80;;
38629;SDS011;24384;51.988;4.644;2023-05-14T01:31:45;24.05;;;16.83;;
38629;SDS011;24384;51.988;4.644;2023-05-14T01:34:13;25.00;;;16.73;;
38629;SDS011;24384;51.988;4.644;2023-05-14T01:36:39;21.63;;;16.33;;
38629;SDS011;24384;51.988;4.644;2023-05-14T01:39:05;20.65;;;15.90;;
38629;SDS011;24384;51.988;4.644;2023-05-14T01:41:35;24.95;;;17.90;;
38629;SDS011;24384;51.988;4.644;2023-05-14T01:44:02;23.60;;;16.23;;
38629;SDS011;24384;51.988;4.644;2023-05-14T01:46:31;24.90;;;17.60;;
38629;SDS011;24384;51.988;4.644;2023-05-14T01:48:57;23.58;;;17.05;;
38629;SDS011;24384;51.988;4.644;2023-05-14T01:51:22;23.48;;;16.67;;
38629;SDS011;24384;51.988;4.644;2023-05-14T01:53:48;26.48;;;16.83;;
38629;SDS011;24384;51.988;4.644;2023-05-14T01:56:14;23.15;;;16.65;;
38629;SDS011;24384;51.988;4.644;2023-05-14T01:58:40;26.33;;;16.73;;
38629;SDS011;24384;51.988;4.644;2023-05-14T02:01:05;20.33;;;15.65;;
38629;SDS011;24384;51.988;4.644;2023-05-14T02:03:30;25.58;;;17.00;;
38629;SDS011;24384;51.988;4.644;2023-05-14T02:05:57;21.35;;;16.02;;
38629;SDS011;24384;51.988;4.644;2023-05-14T02:08:22;22.27;;;16.33;;
38629;SDS011;24384;51.988;4.644;2023-05-14T02:10:47;20.55;;;15.85;;
38629;SDS011;24384;51.988;4.644;2023-05-14T02:13:12;21.73;;;14.55;;
38629;SDS011;24384;51.988;4.644;2023-05-14T02:15:38;20.17;;;14.90;;
38629;SDS011;24384;51.988;4.644;2023-05-14T02:18:03;22.48;;;15.50;;
38629;SDS011;24384;51.988;4.644;2023-05-14T02:20:28;23.10;;;15.38;;
38629;SDS011;24384;51.988;4.644;2023-05-14T02:22:53;22.10;;;16.92;;
38629;SDS011;24384;51.988;4.644;2023-05-14T02:25:19;20.65;;;15.55;;
38629;SDS011;24384;51.988;4.644;2023-05-14T02:27:45;24.63;;;15.85;;
38629;SDS011;24384;51.988;4.644;2023-05-14T02:30:10;23.25;;;15.70;;
38629;SDS011;24384;51.988;4.644;2023-05-14T02:32:36;20.40;;;14.27;;
38629;SDS011;24384;51.988;4.644;2023-05-14T02:35:02;23.08;;;14.80;;
38629;SDS011;24384;51.988;4.644;2023-05-14T02:37:27;22.13;;;15.35;;
38629;SDS011;24384;51.988;4.644;2023-05-14T02:39:52;22.05;;;14.05;;
38629;SDS011;24384;51.988;4.644;2023-05-14T02:42:17;21.88;;;15.00;;
38629;SDS011;24384;51.988;4.644;2023-05-14T02:44:45;23.38;;;15.38;;
38629;SDS011;24384;51.988;4.644;2023-05-14T02:47:11;19.73;;;14.90;;
38629;SDS011;24384;51.988;4.644;2023-05-14T02:49:36;19.45;;;14.40;;
38629;SDS011;24384;51.988;4.644;2023-05-14T02:52:01;27.52;;;16.23;;
38629;SDS011;24384;51.988;4.644;2023-05-14T02:54:27;16.90;;;12.88;;
38629;SDS011;24384;51.988;4.644;2023-05-14T02:56:53;17.98;;;13.82;;
38629;SDS011;24384;51.988;4.644;2023-05-14T02:59:19;23.85;;;15.95;;
38629;SDS011;24384;51.988;4.644;2023-05-14T03:01:44;18.02;;;13.95;;
38629;SDS011;24384;51.988;4.644;2023-05-14T03:04:09;22.92;;;14.82;;
38629;SDS011;24384;51.988;4.644;2023-05-14T03:06:35;22.38;;;13.77;;
38629;SDS011;24384;51.988;4.644;2023-05-14T03:09:00;21.23;;;14.23;;
38629;SDS011;24384;51.988;4.644;2023-05-14T03:11:25;19.48;;;14.65;;
38629;SDS011;24384;51.988;4.644;2023-05-14T03:13:50;22.30;;;14.95;;
38629;SDS011;24384;51.988;4.644;2023-05-14T03:16:16;20.10;;;14.63;;
38629;SDS011;24384;51.988;4.644;2023-05-14T03:18:42;19.48;;;13.13;;
38629;SDS011;24384;51.988;4.644;2023-05-14T03:21:08;29.92;;;15.55;;
38629;SDS011;24384;51.988;4.644;2023-05-14T03:23:33;21.27;;;16.33;;
38629;SDS011;24384;51.988;4.644;2023-05-14T03:26:00;21.73;;;15.60;;
38629;SDS011;24384;51.988;4.644;2023-05-14T03:28:26;21.20;;;15.65;;
38629;SDS011;24384;51.988;4.644;2023-05-14T03:30:51;27.52;;;17.02;;
38629;SDS011;24384;51.988;4.644;2023-05-14T03:33:16;24.55;;;15.88;;
38629;SDS011;24384;51.988;4.644;2023-05-14T03:35:42;22.52;;;16.52;;
38629;SDS011;24384;51.988;4.644;2023-05-14T03:38:07;25.33;;;16.75;;
38629;SDS011;24384;51.988;4.644;2023-05-14T03:40:32;25.63;;;17.13;;
38629;SDS011;24384;51.988;4.644;2023-05-14T03:42:57;26.33;;;17.70;;
38629;SDS011;24384;51.988;4.644;2023-05-14T03:45:23;21.77;;;16.02;;
38629;SDS011;24384;51.988;4.644;2023-05-14T03:47:48;26.42;;;17.45;;
38629;SDS011;24384;51.988;4.644;2023-05-14T03:50:14;25.33;;;17.42;;
38629;SDS011;24384;51.988;4.644;2023-05-14T03:52:39;23.73;;;16.95;;
38629;SDS011;24384;51.988;4.644;2023-05-14T03:55:04;29.08;;;17.90;;
38629;SDS011;24384;51.988;4.644;2023-05-14T03:57:30;31.02;;;19.23;;
38629;SDS011;24384;51.988;4.644;2023-05-14T03:59:55;23.52;;;18.70;;
38629;SDS011;24384;51.988;4.644;2023-05-14T04:02:21;29.98;;;20.95;;
38629;SDS011;24384;51.988;4.644;2023-05-14T04:04:46;27.30;;;18.25;;
38629;SDS011;24384;51.988;4.644;2023-05-14T04:07:11;29.60;;;19.00;;
38629;SDS011;24384;51.988;4.644;2023-05-14T04:09:36;27.52;;;19.08;;
38629;SDS011;24384;51.988;4.644;2023-05-14T04:12:02;32.30;;;18.65;;
38629;SDS011;24384;51.988;4.644;2023-05-14T04:14:27;31.75;;;19.63;;
38629;SDS011;24384;51.988;4.644;2023-05-14T04:16:53;28.77;;;19.65;;
38629;SDS011;24384;51.988;4.644;2023-05-14T04:19:18;28.83;;;18.38;;
38629;SDS011;24384;51.988;4.644;2023-05-14T04:21:45;25.38;;;17.77;;
38629;SDS011;24384;51.988;4.644;2023-05-14T04:24:10;29.83;;;18.70;;
38629;SDS011;24384;51.988;4.644;2023-05-14T04:26:37;24.55;;;17.42;;
38629;SDS011;24384;51.988;4.644;2023-05-14T04:29:02;25.85;;;17.52;;
38629;SDS011;24384;51.988;4.644;2023-05-14T04:31:28;31.63;;;17.77;;
38629;SDS011;24384;51.988;4.644;2023-05-14T04:33:54;23.17;;;16.75;;
38629;SDS011;24384;51.988;4.644;2023-05-14T04:36:19;23.65;;;16.17;;
38629;SDS011;24384;51.988;4.644;2023-05-14T04:38:44;24.05;;;16.85;;
38629;SDS011;24384;51.988;4.644;2023-05-14T04:41:10;25.63;;;17.05;;
38629;SDS011;24384;51.988;4.644;2023-05-14T04:43:35;21.08;;;15.90;;
38629;SDS011;24384;51.988;4.644;2023-05-14T04:46:02;23.42;;;15.77;;
38629;SDS011;24384;51.988;4.644;2023-05-14T04:48:27;24.48;;;15.48;;
38629;SDS011;24384;51.988;4.644;2023-05-14T04:50:52;25.10;;;15.35;;
38629;SDS011;24384;51.988;4.644;2023-05-14T04:53:17;20.58;;;15.60;;
38629;SDS011;24384;51.988;4.644;2023-05-14T04:55:44;18.52;;;15.98;;
38629;SDS011;24384;51.988;4.644;2023-05-14T04:58:12;20.20;;;16.48;;
38629;SDS011;24384;51.988;4.644;2023-05-14T05:00:37;27.05;;;18.60;;
38629;SDS011;24384;51.988;4.644;2023-05-14T05:03:04;39.47;;;19.52;;
38629;SDS011;24384;51.988;4.644;2023-05-14T05:05:29;22.70;;;16.02;;
38629;SDS011;24384;51.988;4.644;2023-05-14T05:07:56;26.55;;;16.88;;
38629;SDS011;24384;51.988;4.644;2023-05-14T05:10:21;21.00;;;16.77;;
38629;SDS011;24384;51.988;4.644;2023-05-14T05:12:48;25.88;;;17.42;;
38629;SDS011;24384;51.988;4.644;2023-05-14T05:15:14;29.90;;;19.70;;
38629;SDS011;24384;51.988;4.644;2023-05-14T05:17:40;26.60;;;17.67;;
38629;SDS011;24384;51.988;4.644;2023-05-14T05:20:06;27.73;;;17.58;;
38629;SDS011;24384;51.988;4.644;2023-05-14T05:22:33;24.92;;;17.42;;
38629;SDS011;24384;51.988;4.644;2023-05-14T05:24:59;23.13;;;17.55;;
38629;SDS011;24384;51.988;4.644;2023-05-14T05:27:24;20.95;;;16.60;;
38629;SDS011;24384;51.988;4.644;2023-05-14T05:29:50;23.20;;;15.80;;
38629;SDS011;24384;51.988;4.644;2023-05-14T05:32:15;24.95;;;16.48;;
38629;SDS011;24384;51.988;4.644;2023-05-14T05:34:40;26.27;;;17.33;;
38629;SDS011;24384;51.988;4.644;2023-05-14T05:37:05;23.27;;;16.73;;
38629;SDS011;24384;51.988;4.644;2023-05-14T05:39:33;20.35;;;15.32;;
38629;SDS011;24384;51.988;4.644;2023-05-14T05:41:59;22.38;;;16.63;;
38629;SDS011;24384;51.988;4.644;2023-05-14T05:44:26;23.17;;;18.08;;
38629;SDS011;24384;51.988;4.644;2023-05-14T05:46:55;23.10;;;18.27;;
38629;SDS011;24384;51.988;4.644;2023-05-14T05:49:23;34.95;;;19.45;;
38629;SDS011;24384;51.988;4.644;2023-05-14T05:51:50;29.00;;;19.98;;
38629;SDS011;24384;51.988;4.644;2023-05-14T05:54:16;30.00;;;22.23;;
38629;SDS011;24384;51.988;4.644;2023-05-14T05:56:42;38.17;;;23.95;;
38629;SDS011;24384;51.988;4.644;2023-05-14T05:59:08;32.40;;;22.52;;
38629;SDS011;24384;51.988;4.644;2023-05-14T06:01:35;34.28;;;23.92;;
38629;SDS011;24384;51.988;4.644;2023-05-14T06:04:00;34.90;;;24.52;;
38629;SDS011;24384;51.988;4.644;2023-05-14T06:06:26;34.85;;;24.13;;
38629;SDS011;24384;51.988;4.644;2023-05-14T06:08:53;40.00;;;24.95;;
38629;SDS011;24384;51.988;4.644;2023-05-14T06:11:18;34.70;;;26.60;;
38629;SDS011;24384;51.988;4.644;2023-05-14T06:13:45;33.13;;;23.70;;
38629;SDS011;24384;51.988;4.644;2023-05-14T06:16:10;36.00;;;24.13;;
38629;SDS011;24384;51.988;4.644;2023-05-14T06:18:36;33.72;;;24.30;;
38629;SDS011;24384;51.988;4.644;2023-05-14T06:21:02;43.50;;;27.25;;
38629;SDS011;24384;51.988;4.644;2023-05-14T06:23:28;40.97;;;25.27;;
38629;SDS011;24384;51.988;4.644;2023-05-14T06:25:53;37.78;;;26.48;;
38629;SDS011;24384;51.988;4.644;2023-05-14T06:28:19;38.13;;;24.00;;
38629;SDS011;24384;51.988;4.644;2023-05-14T06:30:44;40.55;;;26.13;;
38629;SDS011;24384;51.988;4.644;2023-05-14T06:33:09;41.60;;;25.98;;
38629;SDS011;24384;51.988;4.644;2023-05-14T06:35:38;41.88;;;24.80;;
38629;SDS011;24384;51.988;4.644;2023-05-14T06:38:05;33.65;;;24.48;;
38629;SDS011;24384;51.988;4.644;2023-05-14T06:40:30;37.42;;;24.98;;
38629;SDS011;24384;51.988;4.644;2023-05-14T06:42:56;45.88;;;28.42;;
38629;SDS011;24384;51.988;4.644;2023-05-14T06:45:21;49.10;;;27.60;;
38629;SDS011;24384;51.988;4.644;2023-05-14T06:47:46;38.25;;;25.70;;
38629;SDS011;24384;51.988;4.644;2023-05-14T06:50:12;35.80;;;24.92;;
38629;SDS011;24384;51.988;4.644;2023-05-14T06:52:37;34.40;;;26.27;;
38629;SDS011;24384;51.988;4.644;2023-05-14T06:55:02;47.22;;;26.98;;
38629;SDS011;24384;51.988;4.644;2023-05-14T06:57:29;37.67;;;26.48;;
38629;SDS011;24384;51.988;4.644;2023-05-14T06:59:54;35.97;;;25.65;;
38629;SDS011;24384;51.988;4.644;2023-05-14T07:02:20;41.65;;;26.35;;
38629;SDS011;24384;51.988;4.644;2023-05-14T07:04:45;43.30;;;27.00;;
38629;SDS011;24384;51.988;4.644;2023-05-14T07:07:11;41.63;;;25.80;;
38629;SDS011;24384;51.988;4.644;2023-05-14T07:09:39;38.28;;;25.20;;
38629;SDS011;24384;51.988;4.644;2023-05-14T07:12:06;35.10;;;24.20;;
38629;SDS011;24384;51.988;4.644;2023-05-14T07:14:32;34.15;;;24.00;;
38629;SDS011;24384;51.988;4.644;2023-05-14T07:16:57;36.65;;;25.63;;
38629;SDS011;24384;51.988;4.644;2023-05-14T07:19:22;33.17;;;24.08;;
38629;SDS011;24384;51.988;4.644;2023-05-14T07:21:47;30.05;;;23.25;;
38629;SDS011;24384;51.988;4.644;2023-05-14T07:24:14;31.40;;;23.88;;
38629;SDS011;24384;51.988;4.644;2023-05-14T07:26:39;31.73;;;24.30;;
38629;SDS011;24384;51.988;4.644;2023-05-14T07:29:06;37.90;;;22.58;;
38629;SDS011;24384;51.988;4.644;2023-05-14T07:31:31;34.85;;;22.67;;
38629;SDS011;24384;51.988;4.644;2023-05-14T07:33:56;29.83;;;22.00;;
38629;SDS011;24384;51.988;4.644;2023-05-14T07:36:21;32.53;;;24.60;;
38629;SDS011;24384;51.988;4.644;2023-05-14T07:38:47;35.97;;;22.70;;
38629;SDS011;24384;51.988;4.644;2023-05-14T07:41:12;29.30;;;23.23;;
38629;SDS011;24384;51.988;4.644;2023-05-14T07:43:37;35.08;;;23.00;;
38629;SDS011;24384;51.988;4.644;2023-05-14T07:46:04;25.98;;;20.58;;
38629;SDS011;24384;51.988;4.644;2023-05-14T07:48:29;29.70;;;22.02;;
38629;SDS011;24384;51.988;4.644;2023-05-14T07:50:55;27.35;;;21.17;;
38629;SDS011;24384;51.988;4.644;2023-05-14T07:53:21;28.70;;;21.17;;
38629;SDS011;24384;51.988;4.644;2023-05-14T07:55:47;28.58;;;21.10;;
38629;SDS011;24384;51.988;4.644;2023-05-14T07:58:13;26.83;;;20.15;;
38629;SDS011;24384;51.988;4.644;2023-05-14T08:00:38;27.80;;;20.27;;
38629;SDS011;24384;51.988;4.644;2023-05-14T08:03:04;29.17;;;19.23;;
38629;SDS011;24384;51.988;4.644;2023-05-14T08:05:29;23.33;;;17.23;;
38629;SDS011;24384;51.988;4.644;2023-05-14T08:07:55;24.52;;;17.83;;
38629;SDS011;24384;51.988;4.644;2023-05-14T08:10:21;21.52;;;16.27;;
38629;SDS011;24384;51.988;4.644;2023-05-14T08:12:46;22.27;;;15.25;;
38629;SDS011;24384;51.988;4.644;2023-05-14T08:15:14;24.85;;;17.35;;
38629;SDS011;24384;51.988;4.644;2023-05-14T08:17:40;19.52;;;14.75;;
38629;SDS011;24384;51.988;4.644;2023-05-14T08:20:05;24.42;;;15.80;;
38629;SDS011;24384;51.988;4.644;2023-05-14T08:22:31;17.73;;;14.80;;
38629;SDS011;24384;51.988;4.644;2023-05-14T08:24:58;20.35;;;16.00;;
38629;SDS011;24384;51.988;4.644;2023-05-14T08:27:24;22.90;;;16.60;;
38629;SDS011;24384;51.988;4.644;2023-05-14T08:29:51;26.25;;;18.60;;
38629;SDS011;24384;51.988;4.644;2023-05-14T08:32:16;24.75;;;19.85;;
38629;SDS011;24384;51.988;4.644;2023-05-14T08:34:42;23.42;;;19.55;;
38629;SDS011;24384;51.988;4.644;2023-05-14T08:37:07;24.90;;;19.67;;
38629;SDS011;24384;51.988;4.644;2023-05-14T08:39:32;22.90;;;18.42;;
38629;SDS011;24384;51.988;4.644;2023-05-14T08:41:58;26.67;;;19.33;;
38629;SDS011;24384;51.988;4.644;2023-05-14T08:47:29;24.02;;;18.35;;
38629;SDS011;24384;51.988;4.644;2023-05-14T08:50:04;23.20;;;18.38;;
38629;SDS011;24384;51.988;4.644;2023-05-14T08:52:32;23.25;;;16.10;;
38629;SDS011;24384;51.988;4.644;2023-05-14T08:54:59;20.05;;;15.82;;
38629;SDS011;24384;51.988;4.644;2023-05-14T08:57:26;21.02;;;15.07;;
38629;SDS011;24384;51.988;4.644;2023-05-14T08:59:54;22.52;;;15.85;;
38629;SDS011;24384;51.988;4.644;2023-05-14T09:02:21;23.52;;;15.32;;
38629;SDS011;24384;51.988;4.644;2023-05-14T09:04:50;22.23;;;16.52;;
38629;SDS011;24384;51.988;4.644;2023-05-14T09:07:19;18.08;;;15.27;;
38629;SDS011;24384;51.988;4.644;2023-05-14T09:09:46;19.02;;;15.32;;
38629;SDS011;24384;51.988;4.644;2023-05-14T09:12:11;25.90;;;14.80;;
38629;SDS011;24384;51.988;4.644;2023-05-14T09:14:38;21.40;;;16.05;;
38629;SDS011;24384;51.988;4.644;2023-05-14T09:17:03;23.02;;;13.60;;
38629;SDS011;24384;51.988;4.644;2023-05-14T09:19:29;25.70;;;13.88;;
38629;SDS011;24384;51.988;4.644;2023-05-14T09:21:56;19.90;;;12.52;;
38629;SDS011;24384;51.988;4.644;2023-05-14T09:24:24;13.60;;;11.93;;
38629;SDS011;24384;51.988;4.644;2023-05-14T09:26:53;20.35;;;12.50;;
38629;SDS011;24384;51.988;4.644;2023-05-14T09:29:24;20.45;;;13.23;;
38629;SDS011;24384;51.988;4.644;2023-05-14T09:31:50;15.23;;;11.02;;
38629;SDS011;24384;51.988;4.644;2023-05-14T09:34:26;19.65;;;11.45;;
38629;SDS011;24384;51.988;4.644;2023-05-14T09:36:53;21.30;;;9.10;;
38629;SDS011;24384;51.988;4.644;2023-05-14T09:39:21;13.18;;;9.60;;
38629;SDS011;24384;51.988;4.644;2023-05-14T09:41:47;11.27;;;7.72;;
38629;SDS011;24384;51.988;4.644;2023-05-14T09:44:14;12.88;;;8.85;;
38629;SDS011;24384;51.988;4.644;2023-05-14T09:46:39;27.40;;;9.20;;
38629;SDS011;24384;51.988;4.644;2023-05-14T09:49:04;10.73;;;6.82;;
38629;SDS011;24384;51.988;4.644;2023-05-14T09:51:31;13.90;;;7.88;;
38629;SDS011;24384;51.988;4.644;2023-05-14T09:53:58;11.25;;;6.65;;
38629;SDS011;24384;51.988;4.644;2023-05-14T09:56:24;13.30;;;6.88;;
38629;SDS011;24384;51.988;4.644;2023-05-14T09:58:49;13.23;;;7.45;;
38629;SDS011;24384;51.988;4.644;2023-05-14T10:01:15;17.17;;;9.73;;
38629;SDS011;24384;51.988;4.644;2023-05-14T10:03:44;17.90;;;10.45;;
38629;SDS011;24384;51.988;4.644;2023-05-14T10:06:09;12.52;;;7.65;;
38629;SDS011;24384;51.988;4.644;2023-05-14T10:08:37;15.23;;;8.52;;
38629;SDS011;24384;51.988;4.644;2023-05-14T10:11:18;15.80;;;10.25;;
38629;SDS011;24384;51.988;4.644;2023-05-14T10:13:52;20.35;;;9.77;;
38629;SDS011;24384;51.988;4.644;2023-05-14T10:16:30;18.60;;;9.60;;
38629;SDS011;24384;51.988;4.644;2023-05-14T10:19:07;16.35;;;9.70;;
38629;SDS011;24384;51.988;4.644;2023-05-14T10:21:37;19.05;;;9.48;;
38629;SDS011;24384;51.988;4.644;2023-05-14T10:24:05;16.27;;;10.35;;
38629;SDS011;24384;51.988;4.644;2023-05-14T10:26:33;16.75;;;9.40;;
38629;SDS011;24384;51.988;4.644;2023-05-14T10:29:02;16.80;;;9.95;;
38629;SDS011;24384;51.988;4.644;2023-05-14T10:31:44;18.20;;;9.80;;
38629;SDS011;24384;51.988;4.644;2023-05-14T10:37:03;18.67;;;9.30;;
38629;SDS011;24384;51.988;4.644;2023-05-14T10:39:43;26.65;;;10.40;;
38629;SDS011;24384;51.988;4.644;2023-05-14T10:42:23;34.30;;;10.38;;
38629;SDS011;24384;51.988;4.644;2023-05-14T10:45:01;18.92;;;8.70;;
38629;SDS011;24384;51.988;4.644;2023-05-14T10:47:31;11.68;;;8.25;;
38629;SDS011;24384;51.988;4.644;2023-05-14T10:49:57;16.45;;;8.55;;
38629;SDS011;24384;51.988;4.644;2023-05-14T10:52:25;16.58;;;7.55;;
38629;SDS011;24384;51.988;4.644;2023-05-14T10:57:17;17.70;;;8.80;;
38629;SDS011;24384;51.988;4.644;2023-05-14T10:59:43;21.23;;;7.97;;
38629;SDS011;24384;51.988;4.644;2023-05-14T11:05:00;18.42;;;8.70;;
38629;SDS011;24384;51.988;4.644;2023-05-14T11:12:25;15.13;;;6.93;;
38629;SDS011;24384;51.988;4.644;2023-05-14T11:14:53;17.60;;;8.30;;
38629;SDS011;24384;51.988;4.644;2023-05-14T11:17:21;16.10;;;7.38;;
38629;SDS011;24384;51.988;4.644;2023-05-14T11:19:46;17.30;;;8.18;;
38629;SDS011;24384;51.988;4.644;2023-05-14T11:22:11;14.30;;;7.88;;
38629;SDS011;24384;51.988;4.644;2023-05-14T11:24:38;11.95;;;7.78;;
38629;SDS011;24384;51.988;4.644;2023-05-14T11:27:06;13.30;;;6.85;;
38629;SDS011;24384;51.988;4.644;2023-05-14T11:29:32;20.50;;;7.90;;
38629;SDS011;24384;51.988;4.644;2023-05-14T11:31:58;18.20;;;7.75;;
38629;SDS011;24384;51.988;4.644;2023-05-14T11:34:24;18.13;;;8.55;;
38629;SDS011;24384;51.988;4.644;2023-05-14T11:36:49;11.98;;;6.70;;
38629;SDS011;24384;51.988;4.644;2023-05-14T11:39:17;17.27;;;8.00;;
38629;SDS011;24384;51.988;4.644;2023-05-14T11:41:44;14.75;;;8.07;;
38629;SDS011;24384;51.988;4.644;2023-05-14T11:44:10;15.27;;;9.90;;
38629;SDS011;24384;51.988;4.644;2023-05-14T11:46:35;14.27;;;6.85;;
38629;SDS011;24384;51.988;4.644;2023-05-14T11:49:02;14.98;;;7.88;;
38629;SDS011;24384;51.988;4.644;2023-05-14T11:51:28;20.77;;;7.95;;
38629;SDS011;24384;51.988;4.644;2023-05-14T11:53:53;11.05;;;6.65;;
38629;SDS011;24384;51.988;4.644;2023-05-14T11:56:20;14.65;;;7.80;;
38629;SDS011;24384;51.988;4.644;2023-05-14T11:58:53;11.55;;;6.88;;
38629;SDS011;24384;51.988;4.644;2023-05-14T12:01:20;18.83;;;7.18;;
38629;SDS011;24384;51.988;4.644;2023-05-14T12:03:46;17.17;;;6.85;;
38629;SDS011;24384;51.988;4.644;2023-05-14T12:06:11;13.63;;;7.18;;
38629;SDS011;24384;51.988;4.644;2023-05-14T12:08:40;13.50;;;7.10;;
38629;SDS011;24384;51.988;4.644;2023-05-14T12:11:05;17.15;;;7.45;;
38629;SDS011;24384;51.988;4.644;2023-05-14T12:13:33;10.75;;;6.82;;
38629;SDS011;24384;51.988;4.644;2023-05-14T12:16:00;16.92;;;7.05;;
38629;SDS011;24384;51.988;4.644;2023-05-14T12:18:27;17.63;;;7.25;;
38629;SDS011;24384;51.988;4.644;2023-05-14T12:20:54;12.75;;;6.60;;
38629;SDS011;24384;51.988;4.644;2023-05-14T12:23:26;13.10;;;7.55;;
38629;SDS011;24384;51.988;4.644;2023-05-14T12:25:52;15.38;;;7.28;;
38629;SDS011;24384;51.988;4.644;2023-05-14T12:28:18;17.85;;;7.55;;
38629;SDS011;24384;51.988;4.644;2023-05-14T12:30:44;14.13;;;7.78;;
38629;SDS011;24384;51.988;4.644;2023-05-14T12:33:10;14.40;;;5.95;;
38629;SDS011;24384;51.988;4.644;2023-05-14T12:35:36;15.77;;;5.95;;
38629;SDS011;24384;51.988;4.644;2023-05-14T12:38:02;18.70;;;7.10;;
38629;SDS011;24384;51.988;4.644;2023-05-14T12:40:27;13.35;;;5.65;;
38629;SDS011;24384;51.988;4.644;2023-05-14T12:42:53;14.38;;;6.53;;
38629;SDS011;24384;51.988;4.644;2023-05-14T12:45:18;15.32;;;7.05;;
38629;SDS011;24384;51.988;4.644;2023-05-14T12:47:45;10.98;;;5.90;;
38629;SDS011;24384;51.988;4.644;2023-05-14T12:50:10;16.13;;;6.72;;
38629;SDS011;24384;51.988;4.644;2023-05-14T12:52:35;12.82;;;5.82;;
38629;SDS011;24384;51.988;4.644;2023-05-14T12:55:01;15.68;;;5.63;;
38629;SDS011;24384;51.988;4.644;2023-05-14T12:57:26;14.85;;;6.13;;
38629;SDS011;24384;51.988;4.644;2023-05-14T12:59:52;13.77;;;6.28;;
38629;SDS011;24384;51.988;4.644;2023-05-14T13:02:17;15.45;;;6.40;;
38629;SDS011;24384;51.988;4.644;2023-05-14T13:04:43;12.00;;;6.53;;
38629;SDS011;24384;51.988;4.644;2023-05-14T13:07:09;15.40;;;6.15;;
38629;SDS011;24384;51.988;4.644;2023-05-14T13:09:34;16.80;;;6.47;;
38629;SDS011;24384;51.988;4.644;2023-05-14T13:12:00;14.52;;;5.65;;
38629;SDS011;24384;51.988;4.644;2023-05-14T13:14:25;14.65;;;6.15;;
38629;SDS011;24384;51.988;4.644;2023-05-14T13:16:50;11.73;;;5.63;;
38629;SDS011;24384;51.988;4.644;2023-05-14T13:19:17;16.00;;;6.68;;
38629;SDS011;24384;51.988;4.644;2023-05-14T13:21:42;14.40;;;6.30;;
38629;SDS011;24384;51.988;4.644;2023-05-14T13:24:07;14.25;;;5.57;;
38629;SDS011;24384;51.988;4.644;2023-05-14T13:26:35;14.05;;;6.75;;
38629;SDS011;24384;51.988;4.644;2023-05-14T13:29:01;14.13;;;5.25;;
38629;SDS011;24384;51.988;4.644;2023-05-14T13:31:27;11.07;;;5.97;;
38629;SDS011;24384;51.988;4.644;2023-05-14T13:33:53;17.85;;;6.22;;
38629;SDS011;24384;51.988;4.644;2023-05-14T13:36:18;17.35;;;5.30;;
38629;SDS011;24384;51.988;4.644;2023-05-14T13:38:44;14.48;;;5.30;;
38629;SDS011;24384;51.988;4.644;2023-05-14T13:41:12;13.82;;;5.13;;
38629;SDS011;24384;51.988;4.644;2023-05-14T13:43:37;16.02;;;6.32;;
38629;SDS011;24384;51.988;4.644;2023-05-14T13:46:03;10.55;;;5.45;;
38629;SDS011;24384;51.988;4.644;2023-05-14T13:48:31;16.80;;;5.82;;
38629;SDS011;24384;51.988;4.644;2023-05-14T13:50:57;12.43;;;5.47;;
38629;SDS011;24384;51.988;4.644;2023-05-14T13:53:24;15.32;;;5.50;;
38629;SDS011;24384;51.988;4.644;2023-05-14T13:55:51;16.00;;;6.47;;
38629;SDS011;24384;51.988;4.644;2023-05-14T13:58:20;12.20;;;5.88;;
38629;SDS011;24384;51.988;4.644;2023-05-14T14:00:47;10.63;;;4.82;;
38629;SDS011;24384;51.988;4.644;2023-05-14T14:03:12;9.68;;;4.63;;
38629;SDS011;24384;51.988;4.644;2023-05-14T14:05:39;11.98;;;4.43;;
38629;SDS011;24384;51.988;4.644;2023-05-14T14:08:04;11.52;;;4.78;;
38629;SDS011;24384;51.988;4.644;2023-05-14T14:10:29;11.50;;;5.85;;
38629;SDS011;24384;51.988;4.644;2023-05-14T14:12:55;15.65;;;6.05;;
38629;SDS011;24384;51.988;4.644;2023-05-14T14:15:20;22.08;;;6.60;;
38629;SDS011;24384;51.988;4.644;2023-05-14T14:17:47;14.27;;;6.35;;
38629;SDS011;24384;51.988;4.644;2023-05-14T14:20:13;18.60;;;6.07;;
38629;SDS011;24384;51.988;4.644;2023-05-14T14:22:38;16.15;;;6.20;;
38629;SDS011;24384;51.988;4.644;2023-05-14T14:25:04;13.23;;;5.32;;
38629;SDS011;24384;51.988;4.644;2023-05-14T14:27:31;17.88;;;5.53;;
38629;SDS011;24384;51.988;4.644;2023-05-14T14:30:00;13.18;;;5.53;;
38629;SDS011;24384;51.988;4.644;2023-05-14T14:32:25;14.15;;;5.00;;
38629;SDS011;24384;51.988;4.644;2023-05-14T14:34:52;13.38;;;5.47;;
38629;SDS011;24384;51.988;4.644;2023-05-14T14:37:17;13.77;;;5.95;;
38629;SDS011;24384;51.988;4.644;2023-05-14T14:39:42;12.95;;;5.68;;
38629;SDS011;24384;51.988;4.644;2023-05-14T14:42:09;10.73;;;5.45;;